createdAt,value
2023-02-28T00:00:51.392Z,101358.47
2023-02-28T00:03:54.895Z,101364.69
2023-02-28T00:06:57.584Z,101368.31
2023-02-28T00:10:13.437Z,101363.78
2023-02-28T00:13:16.137Z,101360.19
2023-02-28T00:16:24.026Z,101369.00
2023-02-28T00:19:32.949Z,101360.97
2023-02-28T00:22:36.816Z,101359.09
2023-02-28T00:25:39.573Z,101363.22
2023-02-28T00:28:42.359Z,101359.66
2023-02-28T00:31:46.451Z,101367.56
2023-02-28T00:34:51.532Z,101364.22
2023-02-28T00:37:54.265Z,101376.34
2023-02-28T00:40:57.077Z,101367.81
2023-02-28T00:44:03.139Z,101371.16
2023-02-28T00:47:08.212Z,101367.63
2023-02-28T00:50:12.349Z,101364.22
2023-02-28T00:53:15.773Z,101365.88
2023-02-28T00:56:32.570Z,101366.66
2023-02-28T00:59:35.267Z,101371.91
2023-02-28T01:02:39.793Z,101362.94
2023-02-28T01:05:43.000Z,101370.63
2023-02-28T01:08:45.792Z,101364.41
2023-02-28T01:11:55.952Z,101369.75
2023-02-28T01:14:58.920Z,101371.56
2023-02-28T01:18:03.135Z,101354.50
2023-02-28T01:21:07.085Z,101349.63
2023-02-28T01:24:12.933Z,101371.34
2023-02-28T01:27:22.910Z,101368.69
2023-02-28T01:30:25.596Z,101362.47
2023-02-28T01:33:32.328Z,101345.41
2023-02-28T01:37:00.545Z,101355.19
2023-02-28T01:40:10.760Z,101357.03
2023-02-28T01:43:23.201Z,101359.56
2023-02-28T01:46:29.504Z,101356.06
2023-02-28T01:49:33.835Z,101353.13
2023-02-28T01:52:36.832Z,101353.84
2023-02-28T01:55:40.963Z,101357.28
2023-02-28T01:58:50.907Z,101360.59
2023-02-28T02:01:54.426Z,101356.88
2023-02-28T02:05:03.090Z,101347.03
2023-02-28T02:08:11.930Z,101357.53
2023-02-28T02:11:19.071Z,101341.59
2023-02-28T02:14:39.749Z,101343.22
2023-02-28T02:17:46.807Z,101343.22
2023-02-28T02:21:35.617Z,101335.09
2023-02-28T02:25:08.065Z,101342.06
2023-02-28T02:28:30.701Z,101338.47
2023-02-28T02:31:56.209Z,101334.97
2023-02-28T02:35:09.223Z,101328.81
2023-02-28T02:38:22.008Z,101332.41
2023-02-28T02:41:30.475Z,101336.88
2023-02-28T02:44:41.903Z,101341.31
2023-02-28T02:47:45.945Z,101343.91
2023-02-28T02:50:53.449Z,101336.69
2023-02-28T02:54:00.891Z,101336.69
2023-02-28T02:57:07.263Z,101337.50
2023-02-28T03:00:12.363Z,101341.91
2023-02-28T03:03:21.711Z,101344.47
2023-02-28T03:06:26.195Z,101344.44
2023-02-28T03:09:31.593Z,101348.88
2023-02-28T03:12:51.525Z,101340.81
2023-02-28T03:16:12.168Z,101338.13
2023-02-28T03:19:34.571Z,101330.97
2023-02-28T03:23:01.920Z,101334.41
2023-02-28T03:26:09.874Z,101335.25
2023-02-28T03:29:18.338Z,101338.72
2023-02-28T03:32:26.969Z,101341.28
2023-02-28T03:35:34.749Z,101342.28
2023-02-28T03:38:42.405Z,101342.19
2023-02-28T03:41:50.542Z,101346.59
2023-02-28T03:44:57.471Z,101337.69
2023-02-28T03:48:05.946Z,101343.84
2023-02-28T03:51:10.996Z,101340.28
2023-02-28T03:54:21.473Z,101341.06
2023-02-28T03:57:29.692Z,101345.47
2023-02-28T04:00:39.264Z,101341.06
2023-02-28T04:03:42.044Z,101344.66
2023-02-28T04:06:45.591Z,101340.97
2023-02-28T04:09:49.667Z,101346.16
2023-02-28T04:12:52.354Z,101353.19
2023-02-28T04:15:57.239Z,101315.63
2023-02-28T04:19:03.167Z,101350.47
2023-02-28T04:22:05.903Z,101351.28
2023-02-28T04:25:10.610Z,101353.84
2023-02-28T04:28:13.267Z,101344.19
2023-02-28T04:31:16.005Z,101347.59
2023-02-28T04:34:19.961Z,101351.06
2023-02-28T04:37:36.588Z,101351.00
2023-02-28T04:40:40.590Z,101352.81
2023-02-28T04:43:43.597Z,101356.22
2023-02-28T04:46:52.302Z,101366.00
2023-02-28T04:49:57.372Z,101360.59
2023-02-28T04:53:07.402Z,101356.06
2023-02-28T04:56:14.582Z,101354.25
2023-02-28T04:59:20.035Z,101354.25
2023-02-28T05:02:25.893Z,101350.63
2023-02-28T05:05:28.685Z,101361.34
2023-02-28T05:08:31.396Z,101366.56
2023-02-28T05:11:36.895Z,101362.06
2023-02-28T05:14:39.584Z,101357.59
2023-02-28T05:17:42.315Z,101363.72
2023-02-28T05:20:53.108Z,101368.13
2023-02-28T05:24:00.920Z,101373.38
2023-02-28T05:27:05.376Z,101373.31
2023-02-28T05:30:12.431Z,101368.97
2023-02-28T05:33:15.576Z,101368.91
2023-02-28T05:36:18.323Z,101373.16
2023-02-28T05:39:23.523Z,101381.00
2023-02-28T05:42:28.509Z,101375.59
2023-02-28T05:45:34.314Z,101389.75
2023-02-28T05:48:38.960Z,101377.34
2023-02-28T05:51:42.451Z,101385.41
2023-02-28T05:54:45.411Z,101382.66
2023-02-28T05:57:49.454Z,101393.16
2023-02-28T06:00:52.167Z,101393.16
2023-02-28T06:03:54.849Z,101387.00
2023-02-28T06:06:58.793Z,101388.66
2023-02-28T06:10:01.734Z,101392.16
2023-02-28T06:13:07.014Z,101392.09
2023-02-28T06:16:12.360Z,101391.28
2023-02-28T06:19:16.066Z,101391.19
2023-02-28T06:22:18.758Z,101387.00
2023-02-28T06:25:22.003Z,101389.44
2023-02-28T06:28:28.640Z,101388.59
2023-02-28T06:31:31.694Z,101400.19
2023-02-28T06:34:40.192Z,101391.34
2023-02-28T06:37:42.934Z,101392.31
2023-02-28T06:40:46.286Z,101391.47
2023-02-28T06:43:50.558Z,101399.59
2023-02-28T06:46:53.363Z,101398.72
2023-02-28T06:50:03.374Z,101407.63
2023-02-28T06:53:09.482Z,101412.16
2023-02-28T06:56:13.881Z,101410.63
2023-02-28T06:59:18.178Z,101414.28
2023-02-28T07:02:20.846Z,101407.34
2023-02-28T07:05:23.996Z,101408.44
2023-02-28T07:08:27.705Z,101415.78
2023-02-28T07:11:36.485Z,101417.78
2023-02-28T07:14:40.616Z,101419.81
2023-02-28T07:17:43.333Z,101411.25
2023-02-28T07:20:45.985Z,101414.13
2023-02-28T07:23:52.360Z,101415.41
2023-02-28T07:26:55.061Z,101407.78
2023-02-28T07:30:06.184Z,101412.84
2023-02-28T07:33:09.352Z,101407.75
2023-02-28T07:36:16.150Z,101410.69
2023-02-28T07:39:21.030Z,101416.16
2023-02-28T07:42:23.712Z,101409.41
2023-02-28T07:45:27.909Z,101404.31
2023-02-28T07:48:30.743Z,101413.44
2023-02-28T07:51:33.816Z,101395.91
2023-02-28T07:54:36.627Z,101406.69
2023-02-28T07:57:39.708Z,101399.72
2023-02-28T08:00:43.754Z,101406.94
2023-02-28T08:03:46.449Z,101400.91
2023-02-28T08:06:49.266Z,101400.25
2023-02-28T08:09:51.926Z,101404.88
2023-02-28T08:12:57.811Z,101409.16
2023-02-28T08:16:03.765Z,101397.28
2023-02-28T08:19:06.479Z,101406.16
2023-02-28T08:22:12.988Z,101388.81
2023-02-28T08:25:22.256Z,101393.47
2023-02-28T08:28:27.262Z,101386.25
2023-02-28T08:31:32.020Z,101378.44
2023-02-28T08:34:35.079Z,101386.50
2023-02-28T08:37:37.882Z,101382.38
2023-02-28T08:40:48.324Z,101375.34
2023-02-28T08:43:54.570Z,101384.13
2023-02-28T08:46:59.353Z,101370.97
2023-02-28T08:50:02.012Z,101375.53
2023-02-28T08:53:14.349Z,101367.78
2023-02-28T08:56:24.082Z,101368.78
2023-02-28T08:59:26.820Z,101364.41
2023-02-28T09:02:30.851Z,101364.41
2023-02-28T09:05:34.183Z,101360.91
2023-02-28T09:08:44.462Z,101361.06
2023-02-28T09:11:49.164Z,101357.56
2023-02-28T09:14:52.437Z,101358.44
2023-02-28T09:17:56.463Z,101352.31
2023-02-28T09:20:59.744Z,101348.00
2023-02-28T09:24:04.558Z,101348.97
2023-02-28T09:27:10.033Z,101351.56
2023-02-28T09:30:14.472Z,101344.53
2023-02-28T09:33:22.846Z,101343.78
2023-02-28T09:36:38.179Z,101339.34
2023-02-28T09:39:46.368Z,101341.16
2023-02-28T09:42:51.161Z,101347.38
2023-02-28T09:45:59.593Z,101351.84
2023-02-28T09:49:07.077Z,101341.31
2023-02-28T09:52:14.059Z,101349.31
2023-02-28T09:55:24.050Z,101349.38
2023-02-28T09:58:36.764Z,101337.88
2023-02-28T10:01:45.777Z,101342.34
2023-02-28T10:04:58.731Z,101339.72
2023-02-28T10:08:15.571Z,101334.31
2023-02-28T10:11:21.669Z,101340.59
2023-02-28T10:14:31.133Z,101324.47
2023-02-28T10:17:54.866Z,101341.47
2023-02-28T10:21:05.975Z,101325.38
2023-02-28T10:24:22.442Z,101328.97
2023-02-28T10:27:27.101Z,101339.69
2023-02-28T10:30:37.741Z,101338.78
2023-02-28T10:33:40.616Z,101320.94
2023-02-28T10:36:45.710Z,101329.88
2023-02-28T10:39:48.902Z,101346.81
2023-02-28T10:42:57.986Z,101345.91
2023-02-28T10:46:05.061Z,101337.00
2023-02-28T10:49:14.799Z,101340.59
2023-02-28T10:52:36.603Z,101325.41
2023-02-28T10:55:40.342Z,101329.88
2023-02-28T10:58:50.401Z,101331.69
2023-02-28T11:01:56.596Z,101334.34
2023-02-28T11:04:59.579Z,101322.69
2023-02-28T11:08:12.216Z,101320.84
2023-02-28T11:11:15.109Z,101325.31
2023-02-28T11:14:23.018Z,101314.47
2023-02-28T11:17:28.583Z,101317.13
2023-02-28T11:20:34.360Z,101320.72
2023-02-28T11:23:42.409Z,101315.44
2023-02-28T11:26:47.826Z,101306.31
2023-02-28T11:29:50.498Z,101302.56
2023-02-28T11:32:54.542Z,101289.03
2023-02-28T11:36:03.216Z,101288.91
2023-02-28T11:39:14.352Z,101299.00
2023-02-28T11:42:36.944Z,101299.00
2023-02-28T11:45:54.029Z,101302.47
2023-02-28T11:49:04.458Z,101291.25
2023-02-28T11:52:23.057Z,101299.41
2023-02-28T11:55:29.769Z,101293.00
2023-02-28T11:58:42.074Z,101295.31
2023-02-28T12:02:08.308Z,101307.47
2023-02-28T12:05:27.654Z,101300.31
2023-02-28T12:09:05.335Z,101294.16
2023-02-28T12:12:25.880Z,101307.06
2023-02-28T12:15:53.746Z,101314.16
2023-02-28T12:19:18.063Z,101304.03
2023-02-28T12:22:44.287Z,101301.94
2023-02-28T12:25:57.885Z,101293.69
2023-02-28T12:29:10.124Z,101290.94
2023-02-28T12:32:17.818Z,101291.66
2023-02-28T12:35:24.895Z,101273.31
2023-02-28T12:38:31.573Z,101280.78
2023-02-28T12:42:03.605Z,101278.00
2023-02-28T12:45:21.777Z,101289.22
2023-02-28T12:48:31.456Z,101282.13
2023-02-28T12:51:37.194Z,101288.78
2023-02-28T12:54:47.153Z,101289.84
2023-02-28T12:58:00.312Z,101281.88
2023-02-28T13:01:38.482Z,101289.09
2023-02-28T13:05:05.978Z,101281.09
2023-02-28T13:08:32.895Z,101298.00
2023-02-28T13:11:42.182Z,101299.09
2023-02-28T13:14:45.472Z,101290.25
2023-02-28T13:17:52.716Z,101280.34
2023-02-28T13:20:57.311Z,101286.63
2023-02-28T13:24:03.129Z,101285.63
2023-02-28T13:27:44.884Z,101281.94
2023-02-28T13:31:07.737Z,101276.38
2023-02-28T13:34:18.373Z,101269.19
2023-02-28T13:37:39.204Z,101254.75
2023-02-28T13:40:41.932Z,101254.78
2023-02-28T13:44:03.377Z,101256.56
2023-02-28T13:47:29.726Z,101261.75
2023-02-28T13:50:38.681Z,101257.94
2023-02-28T13:54:05.635Z,101251.13
2023-02-28T13:57:38.358Z,101250.13
2023-02-28T14:01:01.662Z,101241.88
2023-02-28T14:04:35.517Z,101246.63
2023-02-28T14:07:51.373Z,101248.44
2023-02-28T14:11:05.981Z,101243.97
2023-02-28T14:14:53.034Z,101233.19
2023-02-28T14:17:56.914Z,101223.00
2023-02-28T14:21:11.649Z,101202.69
2023-02-28T14:24:45.556Z,101227.66
2023-02-28T14:27:55.330Z,101225.88
2023-02-28T14:31:08.694Z,101230.34
2023-02-28T14:34:34.406Z,101225.00
2023-02-28T14:37:43.124Z,101235.00
2023-02-28T14:40:49.812Z,101240.38
2023-02-28T14:43:55.998Z,101237.69
2023-02-28T14:47:00.186Z,101229.47
2023-02-28T14:50:06.022Z,101231.34
2023-02-28T14:53:19.885Z,101224.06
2023-02-28T14:56:26.368Z,101227.81
2023-02-28T14:59:31.759Z,101228.81
2023-02-28T15:02:37.421Z,101219.69
2023-02-28T15:05:40.140Z,101205.16
2023-02-28T15:08:42.918Z,101203.47
2023-02-28T15:11:50.725Z,101205.16
2023-02-28T15:14:53.463Z,101209.72
2023-02-28T15:17:58.914Z,101206.31
2023-02-28T15:21:07.123Z,101207.22
2023-02-28T15:24:15.086Z,101210.53
2023-02-28T15:27:23.874Z,101209.81
2023-02-28T15:30:29.728Z,101210.72
2023-02-28T15:33:34.385Z,101187.41
2023-02-28T15:36:38.317Z,101213.22
2023-02-28T15:39:45.985Z,101208.75
2023-02-28T15:43:07.084Z,101208.84
2023-02-28T15:46:12.058Z,101191.16
2023-02-28T15:49:21.506Z,101207.94
2023-02-28T15:52:29.560Z,101206.78
2023-02-28T15:55:32.528Z,101206.06
2023-02-28T15:58:37.561Z,101206.13
2023-02-28T16:01:41.262Z,101208.66
2023-02-28T16:05:02.966Z,101213.44
2023-02-28T16:08:16.411Z,101214.41
2023-02-28T16:11:20.747Z,101224.25
2023-02-28T16:14:27.862Z,101215.34
2023-02-28T16:17:34.806Z,101220.72
2023-02-28T16:20:37.492Z,101219.00
2023-02-28T16:23:40.194Z,101221.56
2023-02-28T16:26:47.142Z,101225.25
2023-02-28T16:29:52.715Z,101227.19
2023-02-28T16:32:58.548Z,101223.53
2023-02-28T16:36:02.097Z,101238.06
2023-02-28T16:39:07.311Z,101240.00
2023-02-28T16:42:16.409Z,101247.16
2023-02-28T16:45:23.796Z,101243.63
2023-02-28T16:48:26.978Z,101248.16
2023-02-28T16:51:30.205Z,101255.34
2023-02-28T16:54:33.723Z,101265.19
2023-02-28T16:57:36.717Z,101260.81
2023-02-28T17:00:40.722Z,101260.00
2023-02-28T17:03:45.936Z,101268.09
2023-02-28T17:06:48.653Z,101267.25
2023-02-28T17:09:53.484Z,101263.69
2023-02-28T17:13:06.013Z,101277.13
2023-02-28T17:16:23.408Z,101277.16
2023-02-28T17:19:26.301Z,101282.50
2023-02-28T17:22:29.032Z,101291.44
2023-02-28T17:25:32.309Z,101296.81
2023-02-28T17:28:35.317Z,101301.28
2023-02-28T17:31:41.105Z,101309.34
2023-02-28T17:34:44.893Z,101303.97
2023-02-28T17:37:47.738Z,101312.00
2023-02-28T17:40:51.042Z,101322.66
2023-02-28T17:43:54.087Z,101328.03
2023-02-28T17:46:58.528Z,101319.97
2023-02-28T17:50:01.202Z,101334.19
2023-02-28T17:53:03.960Z,101335.06
2023-02-28T17:56:07.774Z,101332.34
2023-02-28T17:59:11.957Z,101343.03
2023-02-28T18:02:16.870Z,101340.25
2023-02-28T18:05:20.631Z,101342.00
2023-02-28T18:08:23.348Z,101348.19
2023-02-28T18:11:27.065Z,101350.81
2023-02-28T18:14:30.142Z,101341.84
2023-02-28T18:17:34.563Z,101348.06
2023-02-28T18:20:38.024Z,101347.09
2023-02-28T18:23:47.754Z,101355.09
2023-02-28T18:26:51.384Z,101355.03
2023-02-28T18:29:54.271Z,101353.19
2023-02-28T18:32:59.275Z,101351.38
2023-02-28T18:36:02.073Z,101361.13
2023-02-28T18:39:05.835Z,101365.53
2023-02-28T18:42:08.887Z,101365.44
2023-02-28T18:45:14.073Z,101357.38
2023-02-28T18:48:19.658Z,101362.69
2023-02-28T18:51:25.213Z,101364.41
2023-02-28T18:54:27.894Z,101368.84
2023-02-28T18:57:36.667Z,101373.22
2023-02-28T19:00:39.860Z,101382.06
2023-02-28T19:03:44.485Z,101374.91
2023-02-28T19:06:47.349Z,101378.41
2023-02-28T19:09:56.169Z,101373.91
2023-02-28T19:12:58.769Z,101372.94
2023-02-28T19:16:05.331Z,101377.31
2023-02-28T19:19:09.315Z,101385.22
2023-02-28T19:22:12.907Z,101388.72
2023-02-28T19:25:15.586Z,101388.66
2023-02-28T19:28:18.409Z,101388.66
2023-02-28T19:31:23.283Z,101359.03
2023-02-28T19:34:27.909Z,101384.97
2023-02-28T19:37:34.691Z,101392.97
2023-02-28T19:40:37.417Z,101385.75
2023-02-28T19:43:40.609Z,101387.47
2023-02-28T19:46:44.475Z,101386.53
2023-02-28T19:49:48.487Z,101385.56
2023-02-28T19:52:51.160Z,101377.53
2023-02-28T19:55:54.416Z,101383.72
2023-02-28T19:58:58.754Z,101387.22
2023-02-28T20:02:02.054Z,101390.69
2023-02-28T20:05:10.399Z,101385.34
2023-02-28T20:08:13.969Z,101387.03
2023-02-28T20:11:18.132Z,101378.16
2023-02-28T20:14:23.184Z,101386.94
2023-02-28T20:17:25.897Z,101391.34
2023-02-28T20:20:36.338Z,101380.63
2023-02-28T20:23:39.577Z,101393.94
2023-02-28T20:26:42.492Z,101393.88
2023-02-28T20:29:50.391Z,101384.94
2023-02-28T20:32:54.637Z,101384.00
2023-02-28T20:36:03.656Z,101355.31
2023-02-28T20:39:06.420Z,101380.41
2023-02-28T20:42:09.057Z,101379.47
2023-02-28T20:45:12.065Z,101387.41
2023-02-28T20:48:14.915Z,101382.97
2023-02-28T20:51:19.726Z,101392.72
2023-02-28T20:54:22.442Z,101390.00
2023-02-28T20:57:25.442Z,101388.22
2023-02-28T21:00:28.687Z,101389.09
2023-02-28T21:03:32.129Z,101392.59
2023-02-28T21:06:39.965Z,101393.47
2023-02-28T21:09:42.933Z,101387.22
2023-02-28T21:12:46.351Z,101395.19
2023-02-28T21:15:49.536Z,101387.16
2023-02-28T21:18:54.154Z,101384.47
2023-02-28T21:21:59.038Z,101400.44
2023-02-28T21:25:04.038Z,101392.44
2023-02-28T21:28:08.098Z,101397.69
2023-02-28T21:31:13.889Z,101396.75
2023-02-28T21:34:17.074Z,101394.94
2023-02-28T21:37:24.850Z,101404.63
2023-02-28T21:40:28.131Z,101404.56
2023-02-28T21:43:31.180Z,101408.03
2023-02-28T21:46:35.259Z,101404.50
2023-02-28T21:49:39.181Z,101396.47
2023-02-28T21:52:45.052Z,101407.09
2023-02-28T21:55:50.871Z,101408.03
2023-02-28T21:59:00.161Z,101406.19
2023-02-28T22:02:05.451Z,101406.09
2023-02-28T22:05:10.889Z,101406.94
2023-02-28T22:08:15.028Z,101406.00
2023-02-28T22:11:18.401Z,101405.94
2023-02-28T22:14:27.267Z,101397.91
2023-02-28T22:17:30.038Z,101403.13
2023-02-28T22:20:35.771Z,101400.47
2023-02-28T22:23:47.963Z,101404.78
2023-02-28T22:26:51.093Z,101403.84
2023-02-28T22:29:56.019Z,101394.81
2023-02-28T22:32:58.722Z,101411.72
2023-02-28T22:36:06.421Z,101411.69
2023-02-28T22:39:11.396Z,101414.31
2023-02-28T22:42:14.125Z,101415.13
2023-02-28T22:45:22.008Z,101420.38
2023-02-28T22:48:24.756Z,101413.22
2023-02-28T22:51:28.259Z,101404.19
2023-02-28T22:54:32.331Z,101411.31
2023-02-28T22:57:41.123Z,101411.25
2023-02-28T23:00:44.060Z,101413.91
2023-02-28T23:03:47.061Z,101412.91
2023-02-28T23:06:49.823Z,101414.66
2023-02-28T23:10:00.036Z,101414.56
2023-02-28T23:13:03.378Z,101409.25
2023-02-28T23:16:09.998Z,101416.38
2023-02-28T23:19:15.556Z,101411.88
2023-02-28T23:22:18.352Z,101418.97
2023-02-28T23:25:25.016Z,101411.88
2023-02-28T23:28:31.303Z,101421.56
2023-02-28T23:31:34.852Z,101418.94
2023-02-28T23:34:40.685Z,101417.91
2023-02-28T23:37:43.531Z,101420.50
2023-02-28T23:40:53.691Z,101424.88
2023-02-28T23:43:56.441Z,101431.91
2023-02-28T23:46:59.223Z,101425.69
2023-02-28T23:50:01.975Z,101425.66
2023-02-28T23:53:06.113Z,101423.97
2023-02-28T23:56:15.165Z,101430.16
2023-02-28T23:59:18.034Z,101432.81
